Terminal Aerodrome Forecast
Issued by NWS

Current Version | Previous Version | Graphics & Text | Print | Product List | Glossary On
Versions: 1 2 3 4 5 6 7 8 9 10 11 12 13 14 15 16 17 18 19 20 21 22 23 24 25
000
FTUS41 KRLX 062116 AAA
TAFCKB
TAF AMD
KCKB 062116Z 0621/0718 00000KT P6SM OVC050
     FM070200 21004KT P6SM OVC024
     FM070400 24005KT P6SM OVC007
     FM071000 27007KT P6SM BKN014
     FM071600 25005KT P6SM BKN040=

USA.gov is the U.S. government's official web portal to all federal, state and local government web resources and services.